Latest Weather Observations for Parafield

IDS60801

Issued at 7:31 am CDT Tuesday 7 December 2021 (issued every 10 minutes, with the page automatically refreshed every 10 minutes)

About weather observations | Map of weather stations | Latest weather observations for SA | Other Formats
Station Details ID: 023013 Name: PARAFIELD AIRPORT Lat: -34.80 Lon: 138.63 Height: 9.5 m
Data from the previous 72 hours. | See also: Recent months at Parafield
Date/Time
CDT
Temp
°C
App
Temp
°C
Dew
Point
°C
Rel
Hum
%
Delta-T
°C
Wind Press
QNH
hPa
Press
MSL
hPa
Rain since
9am
mm
Dir  Spd
km/h
Gust
km/h
Spd
kts
Gust
kts
07/07:30am 14.6 10.1 10.2 75 2.3 SSW 24 32 13 17 1015.5 1015.5 0.0
07/07:00am 14.3 11.7 10.7 79 1.9 S 15 22 8 12 1015.2 1015.2 0.0
07/06:30am 13.8 11.5 11.7 87 1.1 S 15 20 8 11 1015.1 1015.1 0.0
07/06:15am 13.7 11.4 11.9 89 1.0 S 15 22 8 12 1015.0 1015.0 0.0
07/06:00am 13.6 11.5 12.5 93 0.6 SSW 15 20 8 11 1014.9 1014.9 0.0
07/05:56am 13.7 12.0 12.6 93 0.6 SSW 13 20 7 11 1014.9 1014.9 0.0
07/05:37am 13.8 11.0 12.5 92 0.7 S 19 24 10 13 1014.6 1014.6 0.0
07/05:30am 14.3 12.4 11.8 85 1.3 SSE 13 24 7 13 1014.4 1014.4 0.0
07/05:28am 14.4 12.9 11.9 85 1.3 SSE 11 17 6 9 1014.4 1014.4 0.0
07/05:00am 14.0 12.8 11.5 85 1.3 S 9 13 5 7 1014.1 1014.1 0.0
07/04:30am 14.8 13.7 10.8 77 2.1 SSW 7 9 4 5 1013.9 1013.9 0.0
07/04:00am 13.8 12.7 10.6 81 1.7 S 7 9 4 5 1013.8 1013.8 0.0
07/03:30am 13.9 12.2 9.9 77 2.1 S 9 13 5 7 1013.6 1013.6 0.0
07/03:00am 14.5 12.9 10.3 76 2.2 S 9 13 5 7 1013.7 1013.7 0.0
07/02:30am 12.9 11.1 9.5 80 1.7 SSW 9 9 5 5 1013.7 1013.7 0.0
07/02:00am 13.1 10.9 9.2 77 2.0 S 11 13 6 7 1014.1 1014.1 0.0
07/01:30am 13.9 11.3 9.5 75 2.3 S 13 15 7 8 1014.1 1014.1 0.0
07/01:00am 13.6 10.9 9.1 74 2.3 SSW 13 15 7 8 1014.3 1014.3 0.0
07/12:30am 14.1 11.3 8.7 70 2.7 SSW 13 17 7 9 1014.4 1014.4 0.0
07/12:00am 14.6 11.5 8.8 68 2.9 S 15 20 8 11 1014.4 1014.4 0.0
 
Date/Time
CDT
Temp
°C
App
Temp
°C
Dew
Point
°C
Rel
Hum
%
Delta-T
°C
Wind Press
QNH
hPa
Press
MSL
hPa
Rain since
9am
mm
Dir  Spd
km/h
Gust
km/h
Spd
kts
Gust
kts
06/11:30pm 15.2 11.4 8.9 66 3.2 S 19 26 10 14 1014.3 1014.3 0.0
06/11:00pm 15.7 12.3 9.1 65 3.4 S 17 22 9 12 1014.1 1014.1 0.0
06/10:30pm 16.7 13.2 10.1 65 3.5 S 19 24 10 13 1013.8 1013.8 0.0
06/10:00pm 17.9 13.9 10.3 61 4.1 SW 22 32 12 17 1013.3 1013.3 0.0
06/09:30pm 18.0 14.3 10.1 60 4.2 SW 20 32 11 17 1012.9 1012.9 0.0
06/09:00pm 18.4 14.0 10.5 60 4.2 SW 24 30 13 16 1012.7 1012.7 0.0
06/08:30pm 18.5 14.7 11.3 63 3.9 SW 22 32 12 17 1012.4 1012.4 0.0
06/08:00pm 19.1 15.7 11.2 60 4.3 SW 20 28 11 15 1012.1 1012.1 0.0
06/07:30pm 20.0 16.2 11.2 57 4.8 SW 22 32 12 17 1012.0 1012.0 0.0
06/07:00pm 20.5 16.6 12.0 58 4.7 SW 24 35 13 19 1011.9 1011.9 0.0
06/06:30pm 20.8 16.4 11.7 56 5.1 SW 26 32 14 17 1011.6 1011.6 0.0
06/06:00pm 21.9 17.4 10.1 47 6.4 SW 24 32 13 17 1011.2 1011.2 0.0
06/05:30pm 22.5 17.9 10.9 47 6.4 SW 26 33 14 18 1011.1 1011.1 0.0
06/05:00pm 23.2 18.4 10.3 44 7.1 SW 26 33 14 18 1011.2 1011.2 0.0
06/04:30pm 23.7 18.4 9.7 41 7.6 SW 28 37 15 20 1011.2 1011.2 0.0
06/04:00pm 24.8 18.4 7.0 32 9.3 SW 30 43 16 23 1011.1 1011.1 0.0
06/03:30pm 25.4 19.9 6.1 29 10.0 SSW 24 33 13 18 1010.9 1010.9 0.0
06/03:00pm 25.3 19.9 9.6 37 8.6 SSW 28 37 15 20 1011.2 1011.2 0.0
06/02:30pm 25.3 19.4 10.4 39 8.3 SW 32 39 17 21 1011.3 1011.3 0.0
06/02:00pm 26.5 22.1 7.5 30 10.1 WSW 20 30 11 16 1011.3 1011.3 0.0
06/01:30pm 25.5 20.9 8.1 33 9.3 SW 22 33 12 18 1011.5 1011.5 0.0
06/01:00pm 26.2 21.8 9.1 34 9.3 WSW 22 30 12 16 1011.5 1011.5 0.0
06/12:30pm 26.4 22.2 9.7 35 9.2 WSW 22 28 12 15 1011.6 1011.6 0.0
06/12:00pm 26.0 21.9 10.2 37 8.8 WSW 22 28 12 15 1011.7 1011.7 0.0
06/11:30am 26.4 22.9 8.8 33 9.6 W 17 30 9 16 1011.7 1011.7 0.0
06/11:00am 25.8 23.1 5.4 27 10.4 WNW 9 15 5 8 1011.9 1011.9 0.0
06/10:30am 25.8 22.9 6.4 29 10.1 NNW 11 15 6 8 1012.1 1012.1 0.0
06/10:00am 24.3 22.2 6.6 32 9.2 NW 7 15 4 8 1012.3 1012.3 0.0
06/09:30am 23.3 21.3 7.0 35 8.4 W 7 17 4 9 1012.5 1012.5 0.0
06/09:00am 22.5 21.4 6.7 36 8.1 NW 2 9 1 5 1012.7 1012.7 0.0
06/08:30am 21.5 20.0 7.0 39 7.4 SW 4 7 2 4 1012.6 1012.6 0.0
06/08:00am 19.9 18.7 7.9 46 6.2 N 4 7 2 4 1012.6 1012.6 0.0
06/07:30am 18.7 18.5 8.9 53 5.1 CALM 0 0 0 0 1012.5 1012.5 0.0
06/07:00am 15.9 14.5 8.9 63 3.6 NE 6 7 3 4 1012.3 1012.3 0.0
06/06:30am 12.4 10.8 7.9 74 2.2 NE 6 7 3 4 1012.4 1012.4 0.0
06/06:00am 12.3 11.7 7.2 71 2.5 CALM 0 0 0 0 1012.2 1012.2 0.0
06/05:30am 12.7 12.1 7.4 70 2.6 CALM 0 7 0 4 1012.2 1012.2 0.0
06/05:00am 13.9 12.2 7.4 65 3.2 NE 6 7 3 4 1012.0 1012.0 0.0
06/04:30am 13.6 11.6 6.2 61 3.5 SE 6 7 3 4 1012.1 1012.1 0.0
06/04:00am 15.8 13.8 7.3 57 4.2 NNE 7 7 4 4 1012.1 1012.1 0.0
06/03:30am 15.7 13.2 6.4 54 4.5 E 9 13 5 7 1012.0 1012.0 0.0
06/03:00am 16.8 14.2 6.3 50 5.1 SE 9 13 5 7 1012.2 1012.2 0.0
06/02:30am 16.9 14.8 6.7 51 5.0 SW 7 11 4 6 1012.2 1012.2 0.0
06/02:00am 17.5 16.4 7.0 50 5.2 N 2 6 1 3 1012.1 1012.1 0.0
06/01:30am 18.0 16.7 6.2 46 5.8 SW 2 7 1 4 1012.3 1012.3 0.0
06/01:00am 16.9 15.3 6.4 50 5.2 S 4 7 2 4 1012.7 1012.7 0.0
06/12:30am 16.9 14.9 7.0 52 4.9 WSW 7 13 4 7 1013.2 1013.2 0.0
06/12:00am 16.9 14.2 7.3 53 4.8 S 11 13 6 7 1013.6 1013.6 0.0
 
Date/Time
CDT
Temp
°C
App
Temp
°C
Dew
Point
°C
Rel
Hum
%
Delta-T
°C
Wind Press
QNH
hPa
Press
MSL
hPa
Rain since
9am
mm
Dir  Spd
km/h
Gust
km/h
Spd
kts
Gust
kts
05/11:30pm 16.5 13.9 7.7 56 4.4 S 11 13 6 7 1013.9 1013.9 0.0
05/11:00pm 17.0 14.5 8.2 56 4.5 SSW 11 15 6 8 1014.1 1014.1 0.0
05/10:30pm 17.0 14.7 8.9 59 4.2 SW 11 13 6 7 1014.2 1014.2 0.0
05/10:00pm 17.6 15.0 9.2 58 4.4 S 13 17 7 9 1014.3 1014.3 0.0
05/09:30pm 18.1 14.7 9.2 56 4.6 S 17 20 9 11 1014.4 1014.4 0.0
05/09:00pm 18.8 15.9 9.6 55 4.9 SSE 15 20 8 11 1014.4 1014.4 0.0
05/08:30pm 19.8 18.0 9.4 51 5.5 S 9 15 5 8 1014.5 1014.5 0.0
05/08:00pm 21.1 18.6 9.7 48 6.1 SE 13 24 7 13 1014.2 1014.2 0.0
05/07:30pm 21.7 19.3 9.9 47 6.4 SE 13 20 7 11 1013.9 1013.9 0.0
05/07:00pm 22.7 18.9 9.8 44 7.0 SE 20 26 11 14 1013.7 1013.7 0.0
05/06:30pm 24.6 20.1 10.1 40 8.0 SE 24 33 13 18 1013.4 1013.4 0.0
05/06:00pm 27.5 24.7 11.5 37 9.2 SSW 17 24 9 13 1013.4 1013.4 0.0
05/05:30pm 26.7 23.1 10.0 35 9.3 SSW 19 26 10 14 1013.6 1013.6 0.0
05/05:00pm 26.2 22.6 10.0 36 9.0 SSW 19 24 10 13 1014.0 1014.0 0.0
05/04:30pm 26.7 23.3 10.4 36 9.1 SSW 19 24 10 13 1014.4 1014.4 0.0
05/04:00pm 26.7 23.1 10.4 36 9.1 SSW 20 26 11 14 1015.0 1015.0 0.0
05/03:30pm 25.8 21.9 9.6 36 8.9 SSW 20 26 11 14 1015.5 1015.5 0.0
05/03:00pm 24.7 20.8 9.4 38 8.3 SSW 20 28 11 15 1016.1 1016.1 0.0
05/02:30pm 25.1 21.2 9.4 37 8.6 SSW 20 30 11 16 1016.5 1016.5 0.0
05/02:00pm 25.3 21.7 10.4 39 8.3 SW 20 28 11 15 1017.1 1017.1 0.0
05/01:30pm 24.9 21.6 9.6 38 8.4 SSW 17 33 9 18 1017.4 1017.4 0.0
05/01:00pm 24.2 22.0 7.8 35 8.7 N 9 15 5 8 1017.5 1017.5 0.0
05/12:30pm 24.2 22.1 8.2 36 8.5 NE 9 15 5 8 1017.6 1017.6 0.0
05/12:00pm 23.2 20.6 7.7 37 8.1 NE 11 20 6 11 1017.9 1017.9 0.0
05/11:30am 23.7 22.1 8.6 38 8.0 SSE 7 17 4 9 1018.5 1018.5 0.0
05/11:00am 21.5 19.6 7.7 41 7.2 ENE 7 15 4 8 1019.0 1019.0 0.0
05/10:30am 21.2 19.0 7.8 42 6.9 NE 9 15 5 8 1019.5 1019.5 0.0
05/10:00am 20.3 17.6 7.3 43 6.6 NE 11 19 6 10 1020.0 1020.0 0.0
05/09:30am 20.7 18.7 8.7 46 6.3 SE 9 15 5 8 1020.4 1020.4 0.0
05/09:00am 19.7 17.2 8.1 47 6.0 ESE 11 17 6 9 1020.8 1020.8 0.0
05/08:30am 18.6 16.4 8.0 50 5.4 ESE 9 15 5 8 1020.9 1020.9 0.0
05/08:00am 17.3 14.7 7.6 53 4.9 SE 11 20 6 11 1020.8 1020.8 0.0
05/07:30am 16.3 14.1 8.0 58 4.2 SE 9 17 5 9 1020.5 1020.5 0.0
05/07:00am 14.8 13.0 8.1 64 3.4 SSE 7 13 4 7 1020.4 1020.4 0.0
05/06:30am 14.2 12.7 8.6 69 2.8 SE 6 9 3 5 1020.1 1020.1 0.0
05/06:00am 13.2 11.2 8.7 74 2.2 SSE 9 17 5 9 1020.0 1020.0 0.0
05/05:30am 13.6 11.7 9.1 74 2.3 ESE 9 15 5 8 1019.7 1019.7 0.0
05/05:00am 13.2 11.7 9.1 76 2.1 SE 7 13 4 7 1019.5 1019.5 0.0
05/04:30am 13.3 12.0 9.2 76 2.1 SSE 6 17 3 9 1019.2 1019.2 0.0
05/04:00am 13.6 11.4 9.3 75 2.2 SSE 11 17 6 9 1019.1 1019.1 0.0
05/03:30am 13.6 10.9 9.1 74 2.3 SE 13 19 7 10 1019.2 1019.2 0.0
05/03:00am 13.7 10.3 9.2 74 2.3 SE 17 20 9 11 1019.7 1019.7 0.0
05/02:30am 13.9 10.5 9.3 74 2.3 SE 17 24 9 13 1019.8 1019.8 0.0
05/02:00am 13.6 10.9 8.9 73 2.4 SSE 13 19 7 10 1019.8 1019.8 0.0
05/01:30am 13.8 11.1 9.0 73 2.4 SSE 13 20 7 11 1020.4 1020.4 0.0
05/01:00am 13.9 11.2 9.1 73 2.4 SSE 13 20 7 11 1020.8 1020.8 0.0
05/12:30am 13.6 10.6 9.1 74 2.3 SE 15 24 8 13 1020.9 1020.9 0.0
05/12:00am 13.5 11.1 8.6 72 2.4 SSE 11 17 6 9 1021.8 1021.7 0.0
 
Date/Time
CDT
Temp
°C
App
Temp
°C
Dew
Point
°C
Rel
Hum
%
Delta-T
°C
Wind Press
QNH
hPa
Press
MSL
hPa
Rain since
9am
mm
Dir  Spd
km/h
Gust
km/h
Spd
kts
Gust
kts
04/11:30pm 13.1 10.7 8.6 74 2.2 SSE 11 15 6 8 1022.1 1022.0 0.0
04/11:00pm 13.2 10.8 8.5 73 2.3 SSE 11 15 6 8 1022.0 1021.9 0.0
04/10:30pm 13.4 10.5 8.0 70 2.7 SSE 13 15 7 8 1021.9 1021.8 0.0
04/10:00pm 14.6 10.9 7.9 64 3.3 SSE 17 22 9 12 1021.8 1021.7 0.0
04/09:30pm 15.5 10.4 7.8 60 3.8 SSE 24 32 13 17 1021.7 1021.6 0.0
04/09:00pm 16.2 11.1 7.7 57 4.2 SSE 24 30 13 16 1021.3 1021.3 0.0
04/08:30pm 17.0 12.3 7.9 55 4.6 SSE 22 30 12 16 1020.9 1020.9 0.0
04/08:00pm 18.2 13.1 7.6 50 5.4 SSE 24 33 13 18 1020.8 1020.8 0.0
04/07:30pm 19.8 15.2 8.2 47 6.0 SSE 22 28 12 15 1020.4 1020.4 0.0
04/07:00pm 20.2 15.1 9.2 49 5.8 SW 26 37 14 20 1020.4 1020.4 0.0
04/06:30pm 20.3 13.9 9.2 49 5.9 SW 33 44 18 24 1020.1 1020.1 0.0
04/06:00pm 21.3 15.4 8.9 45 6.5 SW 30 39 16 21 1019.7 1019.7 0.0
04/05:30pm 22.0 16.2 9.5 45 6.7 SW 30 39 16 21 1019.7 1019.7 0.0
04/05:00pm 21.9 16.2 9.8 46 6.5 SW 30 39 16 21 1020.0 1020.0 0.0
04/04:30pm 21.2 14.9 9.1 46 6.4 SW 32 41 17 22 1020.5 1020.5 0.0
04/04:00pm 22.0 15.8 9.9 46 6.6 SW 33 48 18 26 1020.7 1020.7 0.0
04/03:30pm 22.2 15.9 9.7 45 6.7 SW 33 44 18 24 1020.9 1020.9 0.0
04/03:00pm 22.7 17.1 8.8 41 7.4 SW 28 39 15 21 1021.1 1021.1 0.0
04/02:30pm 22.0 16.1 9.2 44 6.8 SW 30 39 16 21 1021.0 1021.0 0.0
04/02:00pm 22.0 16.0 8.5 42 7.1 WSW 30 50 16 27 1021.3 1021.3 0.0
04/01:58pm 22.3 16.8 9.1 43 7.1 WSW 28 50 15 27 1021.3 1021.3 0.0
04/01:30pm 21.7 16.8 8.6 43 6.9 WSW 24 37 13 20 1022.2 1022.1 0.0
04/01:00pm 21.9 18.2 8.1 41 7.2 SSW 17 32 9 17 1022.5 1022.4 0.0
04/12:30pm 21.7 18.4 8.2 42 7.0 S 15 26 8 14 1022.8 1022.7 0.0
04/12:00pm 21.2 17.3 8.5 44 6.6 S 19 28 10 15 1023.1 1023.0 0.0
04/11:30am 19.9 16.1 7.6 45 6.3 S 17 26 9 14 1023.1 1023.0 0.0
04/11:00am 20.0 16.1 7.1 43 6.6 S 17 28 9 15 1023.0 1022.9 0.0
04/10:30am 19.4 15.1 7.2 45 6.2 S 19 30 10 16 1023.2 1023.1 0.0
04/10:00am 18.6 14.8 7.4 48 5.7 SSE 17 24 9 13 1023.4 1023.3 0.0
04/09:30am 17.4 14.6 6.9 50 5.2 SSW 11 24 6 13 1023.5 1023.4 0.0
04/09:00am 18.4 14.1 7.2 48 5.6 SSE 19 26 10 14 1023.7 1023.6 0.0
04/08:30am 16.4 13.7 7.3 55 4.5 S 11 15 6 8 1023.6 1023.5 0.0
04/08:00am 15.5 14.0 8.3 62 3.6 SW 6 11 3 6 1023.5 1023.4 0.0

Other formats

Comma delimited format used in spreadsheet applications
http://www.bom.gov.au/fwo/IDS60801/IDS60801.95677.axf

JavaScript Object Notation format (JSON) in row-major order
http://www.bom.gov.au/fwo/IDS60801/IDS60801.95677.json

Data quality

Most of these data are generated automatically and are frequently updated. Quality checks on data are not normally performed. It is possible for incorrect values to appear. Refer to information at About Latest Weather Observations and please check the disclaimer before using these data.